Time;durP1;ratioP1;P1;durP2;ratioP2;P2;SDS_P1;SDS_P2;PMS_P1;PMS_P2;Temp;Humidity;BMP_temperature;BMP_pressure;BME280_temperature;BME280_humidity;BME280_pressure;Samples;Min_cycle;Max_cycle;Signal;HPM_P1;HPM_P2
2023/11/11 00:00:12;;;;;;;10.65;6.20;;;;;;;4.60;79.10;91488.94;2068345;69;20198;-79
2023/11/11 00:02:40;;;;;;;10.35;6.20;;;;;;;4.58;79.05;91489.56;2071510;69;20147;-79
2023/11/11 00:05:08;;;;;;;9.32;6.13;;;;;;;4.42;79.31;91476.66;2071569;69;20164;-79
2023/11/11 00:07:33;;;;;;;9.93;6.00;;;;;;;4.45;79.82;91472.66;2068311;69;20168;-78
2023/11/11 00:10:00;;;;;;;9.73;5.90;;;;;;;4.42;79.46;91469.00;2071445;69;20638;-78
2023/11/11 00:12:26;;;;;;;8.68;5.13;;;;;;;4.42;79.00;91471.06;2071373;69;20148;-78
2023/11/11 00:14:52;;;;;;;9.70;6.40;;;;;;;4.22;80.39;91468.47;2071414;69;20136;-78
2023/11/11 00:17:18;;;;;;;10.98;6.40;;;;;;;4.24;79.86;91473.44;2071850;69;20160;-78
2023/11/11 00:19:45;;;;;;;8.73;5.50;;;;;;;4.06;79.63;91467.41;2073641;69;20569;-78
2023/11/11 00:22:12;;;;;;;8.30;4.68;;;;;;;4.13;79.29;91474.84;2065762;69;20141;-78
2023/11/11 00:24:38;;;;;;;7.55;4.53;;;;;;;4.15;80.03;91477.03;2071918;69;20535;-78
2023/11/11 00:27:06;;;;;;;6.65;4.28;;;;;;;4.06;79.47;91473.72;2071712;69;20157;-78
2023/11/11 00:29:32;;;;;;;6.60;4.30;;;;;;;4.10;79.43;91472.53;2072031;69;20144;-78
2023/11/11 00:31:58;;;;;;;6.28;4.68;;;;;;;4.12;80.19;91475.44;2065913;69;20163;-78
2023/11/11 00:34:24;;;;;;;8.13;5.07;;;;;;;3.86;81.32;91474.47;2071983;69;20213;-77
2023/11/11 00:36:51;;;;;;;6.88;4.75;;;;;;;3.83;79.91;91477.09;2071878;69;20140;-78
2023/11/11 00:39:20;;;;;;;12.43;5.75;;;;;;;3.53;82.16;91480.69;2068674;69;20140;-78
2023/11/11 00:41:47;;;;;;;8.70;5.15;;;;;;;3.74;82.14;91480.69;2071863;69;20136;-78
2023/11/11 00:44:14;;;;;;;13.00;5.53;;;;;;;3.87;81.46;91471.09;2072112;69;20152;-78
2023/11/11 00:46:40;;;;;;;9.95;5.20;;;;;;;3.93;80.91;91465.16;2068593;69;20159;-82
2023/11/11 00:49:08;;;;;;;8.48;5.70;;;;;;;4.01;80.50;91474.06;2071915;69;20132;-81
2023/11/11 00:51:39;;;;;;;8.18;5.53;;;;;;;4.01;80.40;91472.00;2071852;69;20147;-80
2023/11/11 00:54:05;;;;;;;8.73;5.68;;;;;;;4.07;80.13;91486.31;2072017;69;20152;-80
2023/11/11 00:56:32;;;;;;;8.18;5.15;;;;;;;4.06;79.54;91484.13;2071761;69;20194;-80
2023/11/11 00:59:00;;;;;;;7.22;5.20;;;;;;;3.78;79.62;91447.56;2071973;69;20202;-86
2023/11/11 01:01:27;;;;;;;6.85;3.85;;;;;;;4.06;80.33;91507.13;2072012;69;20136;-83
2023/11/11 01:03:53;;;;;;;7.20;5.13;;;;;;;3.64;81.28;91504.34;2068620;69;20587;-81
2023/11/11 01:06:18;;;;;;;7.78;4.88;;;;;;;3.62;81.52;91513.31;2068627;69;20198;-81
2023/11/11 01:08:45;;;;;;;7.10;5.07;;;;;;;3.76;81.51;91536.50;2068580;69;20140;-82
2023/11/11 01:11:11;;;;;;;9.38;5.43;;;;;;;4.03;80.93;91544.53;2068429;69;20156;-82
2023/11/11 01:13:39;;;;;;;7.43;5.57;;;;;;;4.01;80.06;91536.03;2071873;69;20227;-81
2023/11/11 01:16:05;;;;;;;7.13;5.15;;;;;;;4.14;80.63;91545.94;2071988;69;20133;-82
2023/11/11 01:18:31;;;;;;;7.78;5.20;;;;;;;4.19;81.11;91535.78;2071812;69;20206;-83
2023/11/11 01:20:58;;;;;;;8.20;5.10;;;;;;;4.07;80.54;91522.50;2068467;69;20156;-84
2023/11/11 01:23:24;;;;;;;7.78;4.88;;;;;;;4.21;80.28;91536.63;2071730;69;20183;-83
2023/11/11 01:25:50;;;;;;;8.18;5.03;;;;;;;4.11;80.98;91518.53;2068334;69;20177;-81
2023/11/11 01:28:18;;;;;;;7.30;5.18;;;;;;;4.20;80.74;91518.47;2068351;69;20159;-78
2023/11/11 01:30:44;;;;;;;9.38;5.18;;;;;;;4.29;80.29;91500.22;2071747;69;20167;-79
2023/11/11 01:33:10;;;;;;;9.00;5.53;;;;;;;4.08;79.96;91459.22;2068198;69;20239;-78
2023/11/11 01:35:36;;;;;;;8.80;4.60;;;;;;;4.36;80.16;91490.19;2071741;69;20145;-79
2023/11/11 01:38:01;;;;;;;7.45;5.07;;;;;;;3.67;82.17;91478.13;2071820;69;20227;-79
2023/11/11 01:40:27;;;;;;;9.05;5.38;;;;;;;3.75;83.22;91471.00;2071733;69;20151;-80
2023/11/11 01:42:52;;;;;;;8.02;4.65;;;;;;;4.12;81.56;91470.59;2068420;69;20507;-80
2023/11/11 01:45:19;;;;;;;8.82;5.28;;;;;;;4.19;81.15;91480.06;2068473;69;20148;-80
2023/11/11 01:47:45;;;;;;;8.93;4.88;;;;;;;4.11;80.50;91463.56;2064339;69;20158;-80
2023/11/11 01:50:13;;;;;;;7.05;4.72;;;;;;;4.11;80.25;91458.00;2067124;69;20140;-80
2023/11/11 01:52:39;;;;;;;6.15;4.47;;;;;;;4.07;80.51;91474.44;2070602;69;20222;-79
2023/11/11 01:55:14;;;;;;;7.35;4.68;;;;;;;4.17;80.22;91496.63;2067699;69;20171;-80
2023/11/11 01:57:40;;;;;;;7.07;4.28;;;;;;;4.21;79.68;91480.19;2071669;69;20144;-80
2023/11/11 02:00:12;;;;;;;5.78;4.25;;;;;;;4.25;80.28;91463.72;2067931;69;20151;-80
2023/11/11 02:02:40;;;;;;;7.35;4.13;;;;;;;4.09;80.52;91452.31;2068233;69;20195;-80
2023/11/11 02:05:08;;;;;;;6.38;4.28;;;;;;;4.17;81.08;91460.44;2070984;69;20168;-81
2023/11/11 02:07:35;;;;;;;5.72;4.20;;;;;;;4.28;80.57;91462.53;2067912;69;20594;-80
2023/11/11 02:10:02;;;;;;;9.05;5.13;;;;;;;3.47;84.92;91477.50;2068015;69;20160;-81
2023/11/11 02:12:30;;;;;;;7.55;4.90;;;;;;;3.94;83.60;91486.88;2067197;69;20187;-80
2023/11/11 02:14:58;;;;;;;9.55;5.22;;;;;;;3.89;83.17;91487.19;2070928;69;20140;-80
2023/11/11 02:17:27;;;;;;;8.00;4.90;;;;;;;4.13;82.43;91502.69;2064791;69;20152;-79
2023/11/11 02:19:53;;;;;;;6.40;4.55;;;;;;;3.87;82.43;91495.41;2067883;69;20140;-82
2023/11/11 02:22:19;;;;;;;6.60;4.50;;;;;;;3.52;84.38;91482.72;2070839;69;20199;-79
2023/11/11 02:24:49;;;;;;;8.55;5.13;;;;;;;3.64;83.93;91485.59;2070827;69;20576;-79
2023/11/11 02:27:14;;;;;;;7.88;4.78;;;;;;;3.90;82.96;91494.22;2065428;69;20152;-79
2023/11/11 02:29:47;;;;;;;7.30;4.80;;;;;;;4.17;81.48;91483.47;2071183;69;20141;-78
2023/11/11 02:32:12;;;;;;;;;;;;;;;4.25;81.25;91483.97;2067844;69;20243;-79
2023/11/11 02:34:40;;;;;;;6.95;4.68;;;;;;;4.22;81.25;91499.09;2068156;69;20159;-80
2023/11/11 02:37:05;;;;;;;9.20;4.80;;;;;;;4.38;80.38;91507.75;2071507;69;20147;-80
2023/11/11 02:39:32;;;;;;;6.35;4.30;;;;;;;4.34;80.48;91499.88;2071467;69;20598;-80
2023/11/11 02:41:59;;;;;;;6.25;4.40;;;;;;;4.07;81.85;91500.22;2071378;69;20164;-78
2023/11/11 02:44:27;;;;;;;6.90;4.55;;;;;;;3.87;83.21;91490.56;2071214;69;20155;-81
2023/11/11 02:46:53;;;;;;;7.78;4.68;;;;;;;3.99;82.96;91485.06;2071310;69;20178;-79
2023/11/11 02:49:20;;;;;;;8.32;4.93;;;;;;;4.07;82.66;91488.34;2071347;69;20151;-78
2023/11/11 02:51:46;;;;;;;6.43;4.55;;;;;;;4.17;82.54;91489.03;2065054;69;20153;-79
2023/11/11 02:54:15;;;;;;;7.72;4.63;;;;;;;4.31;81.59;91492.00;2065464;69;20150;-79
2023/11/11 02:56:41;;;;;;;7.75;4.35;;;;;;;4.48;80.86;91502.09;2068003;69;20195;-79
2023/11/11 02:59:06;;;;;;;5.97;4.20;;;;;;;4.43;80.72;91484.41;2068105;69;20622;-79
2023/11/11 03:01:36;;;;;;;6.93;4.35;;;;;;;3.87;82.62;91485.00;2071436;69;20188;-79
2023/11/11 03:04:02;;;;;;;7.70;4.53;;;;;;;3.77;83.68;91492.69;2065342;69;20160;-79
2023/11/11 03:06:29;;;;;;;7.22;4.50;;;;;;;4.09;83.25;91485.72;2071589;69;20204;-78
2023/11/11 03:08:55;;;;;;;7.05;4.60;;;;;;;4.40;81.69;91473.72;2070994;69;20729;-80
2023/11/11 03:11:21;;;;;;;7.03;4.25;;;;;;;4.45;80.84;91461.50;2064828;69;20148;-78
2023/11/11 03:13:48;;;;;;;6.70;4.13;;;;;;;4.53;80.52;91465.50;2067476;69;20536;-80
2023/11/11 03:16:15;;;;;;;8.13;4.68;;;;;;;4.20;81.41;91465.53;2068056;69;20461;-79
2023/11/11 03:18:41;;;;;;;6.97;4.30;;;;;;;4.11;82.30;91462.84;2067737;69;20129;-80
2023/11/11 03:21:07;;;;;;;6.60;4.60;;;;;;;4.17;82.43;91452.81;2068173;69;20536;-79
2023/11/11 03:23:34;;;;;;;6.95;4.57;;;;;;;4.52;81.05;91464.06;2065405;69;20172;-79
2023/11/11 03:26:00;;;;;;;8.25;4.18;;;;;;;4.51;81.14;91473.75;2067795;69;20164;-79
2023/11/11 03:28:25;;;;;;;6.55;4.22;;;;;;;4.57;80.92;91485.28;2068076;69;20190;-79
2023/11/11 03:30:51;;;;;;;6.32;4.20;;;;;;;4.66;80.73;91467.00;2071390;69;20152;-81
2023/11/11 03:33:17;;;;;;;7.70;4.32;;;;;;;4.64;81.02;91472.47;2068077;69;20140;-79
2023/11/11 03:35:43;;;;;;;4.43;3.20;;;;;;;4.64;80.71;91457.81;2068261;69;20536;-78
2023/11/11 03:38:09;;;;;;;4.88;3.13;;;;;;;4.48;80.06;91449.88;2071335;69;20610;-79
2023/11/11 03:40:35;;;;;;;5.13;3.53;;;;;;;4.42;79.54;91449.50;2067729;69;20175;-81
2023/11/11 03:43:01;;;;;;;5.40;3.83;;;;;;;4.09;81.65;91471.78;2068064;69;20160;-81
2023/11/11 03:45:27;;;;;;;5.88;3.97;;;;;;;4.44;80.71;91462.81;2071135;69;20210;-81
2023/11/11 03:47:52;;;;;;;6.32;3.80;;;;;;;4.56;80.03;91467.09;2067608;69;20148;-81
2023/11/11 03:50:18;;;;;;;6.82;4.32;;;;;;;4.61;79.92;91470.16;2071383;69;20168;-79
2023/11/11 03:52:47;;;;;;;5.72;3.90;;;;;;;4.59;80.08;91463.13;2071168;69;20655;-79
2023/11/11 03:55:14;;;;;;;8.70;4.00;;;;;;;4.71;79.86;91490.28;2070949;69;20135;-80
2023/11/11 03:57:40;;;;;;;4.70;3.35;;;;;;;4.79;80.24;91504.75;2071382;69;20160;-79
2023/11/11 04:00:16;;;;;;;5.80;3.50;;;;;;;4.81;79.98;91486.09;2071806;69;20155;-79
2023/11/11 04:02:43;;;;;;;5.20;3.45;;;;;;;4.82;79.56;91495.91;2068627;69;20242;-79
2023/11/11 04:05:13;;;;;;;6.53;3.90;;;;;;;4.60;81.25;91491.72;2062832;69;20203;-80
2023/11/11 04:07:39;;;;;;;4.90;3.50;;;;;;;4.78;80.04;91504.00;2068511;69;20163;-79
2023/11/11 04:10:06;;;;;;;5.72;3.78;;;;;;;4.81;80.04;91493.69;2071681;69;20152;-80
2023/11/11 04:12:32;;;;;;;5.45;3.65;;;;;;;4.65;80.47;91478.78;2071766;69;20235;-80
2023/11/11 04:14:59;;;;;;;5.03;3.83;;;;;;;4.76;80.73;91506.66;2071738;69;20304;-79
2023/11/11 04:17:25;;;;;;;7.65;4.15;;;;;;;4.71;80.20;91476.34;2067600;69;20160;-79
2023/11/11 04:19:51;;;;;;;5.25;3.78;;;;;;;4.75;80.03;91471.03;2067918;69;20159;-79
2023/11/11 04:22:17;;;;;;;5.63;3.70;;;;;;;4.78;78.75;91464.25;2071458;69;20182;-81
2023/11/11 04:24:44;;;;;;;6.32;3.38;;;;;;;4.83;79.30;91472.25;2071055;69;20176;-80
2023/11/11 04:27:11;;;;;;;6.05;3.95;;;;;;;4.67;79.77;91478.88;2071699;69;20578;-80
2023/11/11 04:29:37;;;;;;;4.78;3.33;;;;;;;4.78;79.14;91476.13;2068277;69;20703;-80
2023/11/11 04:32:05;;;;;;;5.10;3.13;;;;;;;4.81;79.40;91474.94;2068567;69;20144;-80
2023/11/11 04:34:33;;;;;;;3.40;2.50;;;;;;;4.75;79.81;91479.41;2071869;69;20228;-80
2023/11/11 04:36:59;;;;;;;5.35;2.58;;;;;;;4.73;79.34;91465.34;2072088;69;20681;-81
2023/11/11 04:39:25;;;;;;;3.15;1.73;;;;;;;4.84;79.23;91486.94;2071960;69;20156;-81
2023/11/11 04:41:51;;;;;;;3.88;1.67;;;;;;;4.66;80.49;91494.16;2071894;69;20182;-81
2023/11/11 04:44:17;;;;;;;2.40;1.70;;;;;;;4.83;80.24;91494.56;2071952;69;20175;-80
2023/11/11 04:46:42;;;;;;;3.03;1.67;;;;;;;4.72;80.38;91511.25;2065780;69;20220;-80
2023/11/11 04:49:09;;;;;;;3.60;2.80;;;;;;;4.82;79.35;91515.41;2072050;69;20168;-81
2023/11/11 04:51:36;;;;;;;3.85;3.10;;;;;;;4.97;79.01;91527.47;2072008;69;20201;-81
2023/11/11 04:54:03;;;;;;;4.15;3.03;;;;;;;4.99;79.13;91522.72;2071940;69;20137;-80
2023/11/11 04:56:30;;;;;;;4.80;3.22;;;;;;;5.03;78.81;91541.78;2071861;69;20156;-81
2023/11/11 04:58:56;;;;;;;5.28;3.30;;;;;;;4.98;78.98;91542.84;2071730;69;20136;-81
2023/11/11 05:01:21;;;;;;;4.80;3.35;;;;;;;5.06;78.81;91532.19;2072116;69;20147;-81
2023/11/11 05:03:48;;;;;;;6.30;3.63;;;;;;;5.01;79.38;91536.81;2072002;69;20187;-81
2023/11/11 05:06:16;;;;;;;4.60;3.10;;;;;;;5.04;79.01;91532.06;2068534;69;20220;-81
2023/11/11 05:08:41;;;;;;;3.90;2.90;;;;;;;4.97;79.49;91536.53;2071897;69;20152;-81
2023/11/11 05:11:07;;;;;;;5.18;2.65;;;;;;;5.10;78.98;91541.56;2071764;69;20595;-81
2023/11/11 05:13:34;;;;;;;5.28;3.40;;;;;;;5.12;79.25;91543.72;2071889;69;20237;-80
2023/11/11 05:16:03;;;;;;;5.70;3.78;;;;;;;5.07;78.94;91544.81;2071798;69;20140;-81
2023/11/11 05:18:29;;;;;;;6.35;3.60;;;;;;;5.05;79.09;91551.00;2071782;69;20243;-80
2023/11/11 05:20:55;;;;;;;4.88;2.70;;;;;;;5.02;79.58;91559.84;2071820;69;20147;-80
2023/11/11 05:23:20;;;;;;;4.93;2.67;;;;;;;5.06;79.45;91554.50;2071904;69;20511;-80
2023/11/11 05:25:47;;;;;;;4.38;2.50;;;;;;;5.04;79.44;91569.06;2071784;69;20179;-80
2023/11/11 05:28:13;;;;;;;3.97;2.67;;;;;;;5.08;79.36;91568.59;2071854;69;20239;-80
2023/11/11 05:30:39;;;;;;;2.80;2.10;;;;;;;4.99;79.35;91570.13;2071862;69;20259;-80
2023/11/11 05:33:05;;;;;;;5.50;2.65;;;;;;;4.75;79.66;91572.13;2071946;69;20135;-80
2023/11/11 05:35:31;;;;;;;4.55;2.45;;;;;;;4.95;78.85;91585.88;2071907;69;20129;-81
2023/11/11 05:37:59;;;;;;;5.05;2.35;;;;;;;5.10;78.35;91591.03;2071674;69;20144;-81
2023/11/11 05:40:29;;;;;;;5.28;2.00;;;;;;;5.15;78.78;91595.53;2071850;69;20233;-80
2023/11/11 05:42:56;;;;;;;3.92;2.10;;;;;;;5.11;78.73;91592.50;2068681;69;20231;-79
2023/11/11 05:45:22;;;;;;;3.33;2.28;;;;;;;5.15;78.95;91594.81;2071844;69;20596;-80
2023/11/11 05:47:47;;;;;;;4.07;2.17;;;;;;;5.08;79.06;91593.69;2072298;69;20143;-80
2023/11/11 05:50:13;;;;;;;3.33;2.40;;;;;;;5.05;78.76;91601.22;2072533;69;20231;-80
2023/11/11 05:52:39;;;;;;;3.88;2.50;;;;;;;5.09;78.34;91606.31;2072351;69;20164;-78
2023/11/11 05:55:08;;;;;;;4.53;2.58;;;;;;;4.89;79.15;91611.34;2069162;69;20140;-79
2023/11/11 05:57:35;;;;;;;4.57;2.72;;;;;;;4.84;79.52;91621.50;2069043;69;20588;-79
2023/11/11 06:00:03;;;;;;;3.35;2.20;;;;;;;4.87;78.69;91625.16;2068716;69;20626;-78
2023/11/11 06:02:37;;;;;;;2.88;2.03;;;;;;;4.83;78.35;91636.03;2068819;69;20141;-79
2023/11/11 06:05:05;;;;;;;3.53;2.25;;;;;;;4.78;79.21;91648.28;2072012;69;20155;-82
2023/11/11 06:07:31;;;;;;;5.50;2.17;;;;;;;4.73;78.56;91638.19;2071827;69;20608;-80
2023/11/11 06:09:57;;;;;;;3.05;2.00;;;;;;;4.67;79.13;91641.28;2071634;69;20131;-82
2023/11/11 06:12:23;;;;;;;2.90;2.08;;;;;;;4.66;79.29;91645.41;2071726;69;20147;-80
2023/11/11 06:14:49;;;;;;;3.72;2.42;;;;;;;4.54;79.04;91653.72;2071703;69;20172;-80
2023/11/11 06:17:15;;;;;;;3.15;2.22;;;;;;;4.50;79.39;91656.25;2071673;69;20180;-80
2023/11/11 06:19:41;;;;;;;3.90;1.90;;;;;;;4.43;78.80;91656.44;2071621;69;20205;-80
2023/11/11 06:22:07;;;;;;;2.00;1.65;;;;;;;4.44;78.43;91643.97;2071715;69;20137;-80
2023/11/11 06:24:33;;;;;;;3.15;1.77;;;;;;;4.35;79.07;91639.91;2071675;69;20150;-80
2023/11/11 06:26:59;;;;;;;5.93;1.70;;;;;;;4.29;79.44;91656.22;2071904;69;20132;-80
2023/11/11 06:29:24;;;;;;;2.72;1.75;;;;;;;4.28;79.57;91669.44;2065604;69;20152;-80
2023/11/11 06:31:52;;;;;;;10.63;5.22;;;;;;;4.00;80.38;91661.97;2071875;69;20140;-80
2023/11/11 06:34:19;;;;;;;7.45;4.70;;;;;;;4.06;81.40;91670.72;2071671;69;20131;-80
2023/11/11 06:36:45;;;;;;;6.28;3.15;;;;;;;4.27;79.56;91670.03;2065740;69;20615;-80
2023/11/11 06:39:13;;;;;;;7.35;3.65;;;;;;;4.16;80.64;91665.81;2068275;69;20140;-80
2023/11/11 06:41:41;;;;;;;65.80;22.30;;;;;;;3.92;81.03;91637.06;2065413;69;20143;-80
2023/11/11 06:44:06;;;;;;;17.58;6.32;;;;;;;4.22;80.52;91676.66;2068367;69;20144;-80
2023/11/11 06:46:32;;;;;;;5.32;2.88;;;;;;;4.34;79.64;91688.59;2071763;69;20148;-80
2023/11/11 06:48:59;;;;;;;2.75;1.95;;;;;;;4.37;80.34;91681.13;2071579;69;20151;-81
2023/11/11 06:51:25;;;;;;;4.63;2.38;;;;;;;4.53;79.75;91687.75;2068322;69;20140;-80
2023/11/11 06:53:51;;;;;;;2.83;2.17;;;;;;;4.53;80.27;91687.75;2071639;69;20132;-80
2023/11/11 06:56:18;;;;;;;7.05;3.55;;;;;;;4.44;80.42;91686.47;2071533;69;20140;-80
2023/11/11 06:58:43;;;;;;;44.95;20.23;;;;;;;4.27;81.10;91693.06;2071597;69;20206;-80
2023/11/11 07:01:09;;;;;;;26.25;15.70;;;;;;;4.17;81.61;91702.75;2071883;69;20688;-80
2023/11/11 07:03:35;;;;;;;18.88;11.57;;;;;;;4.19;82.09;91702.91;2068276;69;20152;-80
2023/11/11 07:06:03;;;;;;;16.77;10.88;;;;;;;4.41;81.21;91714.84;2071689;69;20297;-79
2023/11/11 07:08:30;;;;;;;21.50;14.18;;;;;;;4.19;82.13;91714.78;2071580;69;20180;-79
2023/11/11 07:10:56;;;;;;;18.65;11.57;;;;;;;4.03;83.20;91722.03;2071472;69;20144;-80
2023/11/11 07:13:23;;;;;;;9.38;5.47;;;;;;;3.92;83.24;91709.47;2068376;69;20607;-80
2023/11/11 07:15:50;;;;;;;8.70;5.53;;;;;;;4.36;81.79;91724.97;2071629;69;20576;-80
2023/11/11 07:18:16;;;;;;;10.50;4.82;;;;;;;4.05;81.07;91722.19;2068264;69;20148;-80
2023/11/11 07:20:42;;;;;;;11.70;7.50;;;;;;;4.06;82.77;91723.63;2071585;69;20243;-81
2023/11/11 07:23:08;;;;;;;11.50;6.70;;;;;;;4.52;81.58;91731.63;2071603;69;20136;-78
2023/11/11 07:25:34;;;;;;;11.00;5.93;;;;;;;4.70;80.90;91729.31;2071336;69;20149;-78
2023/11/11 07:28:04;;;;;;;6.72;4.72;;;;;;;4.63;81.11;91721.91;2068221;69;20176;-78
2023/11/11 07:30:30;;;;;;;6.57;4.15;;;;;;;4.91;80.26;91725.09;2071586;69;20176;-78
2023/11/11 07:32:58;;;;;;;5.32;3.17;;;;;;;4.46;80.66;91722.88;2071458;69;20156;-78
2023/11/11 07:35:25;;;;;;;5.03;3.38;;;;;;;4.56;80.82;91733.97;2071665;69;20144;-78
2023/11/11 07:37:50;;;;;;;4.75;3.65;;;;;;;4.82;79.61;91744.06;2071439;69;20179;-79
2023/11/11 07:40:16;;;;;;;4.68;3.08;;;;;;;5.19;79.02;91745.72;2068085;69;20184;-78
2023/11/11 07:42:42;;;;;;;5.43;3.25;;;;;;;5.07;78.95;91746.38;2071504;69;20140;-80
2023/11/11 07:45:09;;;;;;;4.70;2.85;;;;;;;5.32;78.14;91751.50;2071370;69;20136;-78
2023/11/11 07:47:41;;;;;;;5.88;3.47;;;;;;;5.51;77.06;91755.44;2071557;69;20241;-78
2023/11/11 07:50:09;;;;;;;4.88;3.38;;;;;;;5.40;77.91;91764.50;2071545;69;20212;-78
2023/11/11 07:52:35;;;;;;;5.53;3.58;;;;;;;5.56;77.48;91766.28;2071488;69;20227;-79
2023/11/11 07:55:01;;;;;;;6.70;4.00;;;;;;;5.44;77.98;91775.91;2071406;69;20603;-79
2023/11/11 07:57:27;;;;;;;7.15;4.82;;;;;;;5.50;77.31;91787.50;2071551;69;20151;-78
2023/11/11 07:59:54;;;;;;;12.05;6.72;;;;;;;5.28;78.27;91784.72;2071367;69;20584;-79
2023/11/11 08:02:24;;;;;;;11.63;5.70;;;;;;;5.31;78.34;91791.91;2071424;69;20224;-78
2023/11/11 08:04:51;;;;;;;8.88;5.38;;;;;;;5.04;79.55;91806.19;2068123;69;20136;-78
2023/11/11 08:07:18;;;;;;;10.23;5.18;;;;;;;5.09;79.86;91796.75;2071528;69;20144;-78
2023/11/11 08:09:45;;;;;;;8.50;5.35;;;;;;;5.33;78.24;91794.09;2071357;69;20244;-78
2023/11/11 08:12:10;;;;;;;11.35;6.60;;;;;;;5.23;78.21;91796.22;2071417;69;20636;-78
2023/11/11 08:14:36;;;;;;;13.95;7.65;;;;;;;5.32;78.00;91778.66;2071422;69;20239;-78
2023/11/11 08:17:02;;;;;;;8.38;4.70;;;;;;;5.16;77.67;91764.38;2067926;69;20560;-78
2023/11/11 08:19:27;;;;;;;6.85;3.67;;;;;;;5.32;77.06;91764.72;2071381;69;20144;-78
2023/11/11 08:21:53;;;;;;;4.07;3.05;;;;;;;5.47;75.88;91772.66;2071345;69;20638;-78
2023/11/11 08:24:19;;;;;;;5.95;3.75;;;;;;;5.57;76.48;91775.38;2071546;69;20547;-77
2023/11/11 08:26:44;;;;;;;6.43;3.83;;;;;;;5.98;78.94;91772.38;2071265;69;20236;-78
2023/11/11 08:29:10;;;;;;;4.50;2.97;;;;;;;6.33;78.28;91756.41;2071410;69;20507;-77
2023/11/11 08:31:39;;;;;;;4.32;2.70;;;;;;;6.44;75.95;91754.22;2071471;69;20176;-78
2023/11/11 08:34:06;;;;;;;4.22;2.40;;;;;;;6.76;74.24;91758.94;2071481;69;20584;-77
2023/11/11 08:36:31;;;;;;;3.45;2.35;;;;;;;6.74;73.86;91764.44;2071429;69;20228;-78
2023/11/11 08:38:57;;;;;;;4.28;2.38;;;;;;;6.87;72.62;91743.47;2067904;69;20132;-78
2023/11/11 08:41:23;;;;;;;6.88;3.28;;;;;;;7.57;74.65;91750.97;2071350;69;20156;-78
2023/11/11 08:43:48;;;;;;;7.53;4.20;;;;;;;7.76;71.38;91750.66;2071748;69;20155;-78
2023/11/11 08:46:14;;;;;;;8.35;4.40;;;;;;;7.77;72.36;91752.09;2068607;69;20148;-78
2023/11/11 08:48:42;;;;;;;7.18;4.70;;;;;;;7.55;71.69;91750.84;2071821;69;20651;-79
2023/11/11 08:51:08;;;;;;;7.68;3.85;;;;;;;7.78;70.47;91759.16;2071820;69;20136;-79
2023/11/11 08:53:35;;;;;;;4.50;3.20;;;;;;;7.92;71.16;91772.50;2071869;69;20136;-79
2023/11/11 08:56:01;;;;;;;5.97;3.50;;;;;;;8.67;69.93;91767.47;2071847;69;20610;-79
2023/11/11 08:58:27;;;;;;;6.65;4.20;;;;;;;9.10;67.68;91765.50;2071829;69;20149;-79
2023/11/11 09:00:53;;;;;;;5.65;3.90;;;;;;;9.32;65.88;91777.13;2068592;69;20220;-80
2023/11/11 09:03:18;;;;;;;6.13;3.70;;;;;;;10.01;65.18;91785.41;2071846;69;20156;-79
2023/11/11 09:05:44;;;;;;;8.18;3.90;;;;;;;9.20;64.57;91789.81;2068587;69;20251;-79
2023/11/11 09:08:10;;;;;;;4.75;2.78;;;;;;;8.83;65.74;91785.84;2071888;69;20549;-79
2023/11/11 09:10:36;;;;;;;6.35;3.63;;;;;;;9.65;65.53;91795.59;2071924;69;20148;-79
2023/11/11 09:13:03;;;;;;;7.75;3.95;;;;;;;10.30;64.50;91781.16;2071830;69;20214;-79
2023/11/11 09:15:29;;;;;;;6.38;3.53;;;;;;;10.05;62.04;91779.25;2071652;69;20407;-79
2023/11/11 09:17:55;;;;;;;5.20;3.60;;;;;;;9.88;60.56;91780.56;2071788;69;20156;-79
2023/11/11 09:20:22;;;;;;;5.90;3.63;;;;;;;10.22;60.52;91772.31;2062811;69;20535;-79
2023/11/11 09:22:49;;;;;;;5.57;3.15;;;;;;;10.91;58.91;91770.59;2068607;69;20171;-79
2023/11/11 09:25:15;;;;;;;3.28;2.47;;;;;;;10.46;59.01;91767.13;2068375;69;20146;-79
2023/11/11 09:27:41;;;;;;;4.28;2.00;;;;;;;10.00;58.35;91755.84;2071889;69;20168;-79
2023/11/11 09:30:08;;;;;;;5.03;2.83;;;;;;;10.98;58.53;91754.69;2068515;69;20142;-79
2023/11/11 09:32:34;;;;;;;2.67;1.88;;;;;;;11.29;57.01;91753.22;2071768;69;20136;-79
2023/11/11 09:35:00;;;;;;;1.80;1.20;;;;;;;11.47;53.95;91753.25;2071709;69;20133;-79
2023/11/11 09:37:26;;;;;;;1.40;1.10;;;;;;;12.09;51.19;91757.94;2071753;69;20159;-79
2023/11/11 09:39:53;;;;;;;3.60;2.10;;;;;;;13.00;51.75;91754.34;2071585;69;20299;-82
2023/11/11 09:42:19;;;;;;;1.55;1.35;;;;;;;12.13;50.07;91760.94;2068541;69;20191;-79
2023/11/11 09:44:46;;;;;;;2.15;1.20;;;;;;;11.74;50.85;91753.00;2071697;69;20148;-79
2023/11/11 09:47:13;;;;;;;1.38;0.88;;;;;;;11.80;50.64;91758.16;2071653;69;20213;-80
2023/11/11 09:49:39;;;;;;;1.80;1.10;;;;;;;12.66;50.83;91760.19;2071811;69;20140;-78
2023/11/11 09:52:08;;;;;;;1.90;1.40;;;;;;;12.12;50.01;91755.94;2071678;69;20617;-79
2023/11/11 09:54:35;;;;;;;3.28;1.60;;;;;;;11.41;53.60;91742.47;2071521;69;20149;-80
2023/11/11 09:57:02;;;;;;;4.53;2.47;;;;;;;12.50;53.01;91759.53;2068468;69;20183;-79
2023/11/11 09:59:29;;;;;;;3.80;2.40;;;;;;;11.53;52.87;91750.69;2068466;69;20580;-79
2023/11/11 10:01:55;;;;;;;3.45;2.17;;;;;;;13.08;51.34;91757.47;2071730;69;20144;-80
2023/11/11 10:04:20;;;;;;;2.75;1.80;;;;;;;13.19;49.76;91761.41;2071771;69;20520;-79
2023/11/11 10:06:46;;;;;;;2.25;1.33;;;;;;;13.92;49.78;91749.81;2068528;69;20140;-79
2023/11/11 10:09:18;;;;;;;3.42;2.45;;;;;;;13.26;47.87;91762.38;2071554;69;20516;-78
2023/11/11 10:11:45;;;;;;;2.50;1.60;;;;;;;12.23;48.53;91751.44;2071696;69;20143;-79
2023/11/11 10:14:13;;;;;;;2.72;1.73;;;;;;;11.63;49.44;91760.28;2071655;69;20160;-78
2023/11/11 10:16:43;;;;;;;2.60;1.80;;;;;;;11.89;48.81;91766.31;2071695;69;20681;-77
2023/11/11 10:19:16;;;;;;;3.20;1.60;;;;;;;12.13;49.07;91760.22;2071783;69;20132;-78
2023/11/11 10:21:44;;;;;;;2.60;1.60;;;;;;;11.82;50.73;91758.22;2068514;69;20595;-79
2023/11/11 10:24:10;;;;;;;3.20;2.00;;;;;;;11.56;52.05;91763.50;2071715;69;20180;-80
2023/11/11 10:26:38;;;;;;;5.07;3.70;;;;;;;11.76;52.16;91764.34;2068265;69;20151;-80
2023/11/11 10:29:07;;;;;;;3.90;2.40;;;;;;;11.64;52.11;91756.13;2071670;69;20141;-80
2023/11/11 10:31:37;;;;;;;4.85;2.00;;;;;;;11.83;51.02;91771.72;2071581;69;20148;-79
2023/11/11 10:34:04;;;;;;;2.70;1.80;;;;;;;11.79;50.22;91762.34;2071730;69;20144;-79
2023/11/11 10:36:43;;;;;;;3.72;2.20;;;;;;;10.92;52.31;91771.31;2071546;69;20560;-81
2023/11/11 10:39:12;;;;;;;7.03;2.70;;;;;;;11.45;52.85;91771.53;2071823;69;20163;-78
2023/11/11 10:41:43;;;;;;;2.63;1.85;;;;;;;11.18;52.15;91771.78;2071480;69;20235;-78
2023/11/11 10:44:08;;;;;;;3.30;1.90;;;;;;;10.89;52.46;91778.94;2071702;69;20137;-78
2023/11/11 10:46:36;;;;;;;4.05;1.60;;;;;;;11.69;52.35;91788.75;2071662;69;20158;-80
2023/11/11 10:49:04;;;;;;;5.30;2.67;;;;;;;12.60;50.78;91779.72;2071596;69;20144;-79
2023/11/11 10:51:31;;;;;;;5.15;2.47;;;;;;;11.82;47.75;91775.91;2068417;69;20243;-79
2023/11/11 10:54:00;;;;;;;2.22;1.45;;;;;;;13.66;44.88;91772.28;2071538;69;20155;-80
2023/11/11 10:56:28;;;;;;;2.53;1.15;;;;;;;16.15;41.47;91776.22;2071471;69;20213;-80
2023/11/11 10:58:55;;;;;;;1.33;0.93;;;;;;;18.10;38.56;91788.38;2068186;69;20219;-79
2023/11/11 11:01:21;;;;;;;1.27;1.00;;;;;;;18.69;38.89;91780.88;2071601;69;20210;-80
2023/11/11 11:03:48;;;;;;;3.45;1.80;;;;;;;18.66;38.98;91778.63;2071633;69;20151;-79
2023/11/11 11:06:32;;;;;;;1.48;1.15;;;;;;;20.02;35.15;91776.97;2071446;69;20618;-81
2023/11/11 11:09:18;;;;;;;2.72;1.60;;;;;;;19.07;34.35;91773.59;2071693;69;20622;-80
2023/11/11 11:11:48;;;;;;;6.40;4.80;;;;;;;17.21;38.53;91775.88;2068147;69;20210;-81
2023/11/11 11:14:32;;;;;;;2.55;1.33;;;;;;;21.46;34.91;91786.13;2071414;69;20152;-80
2023/11/11 11:17:01;;;;;;;2.45;0.95;;;;;;;21.27;33.93;91781.69;2071453;69;20669;-82
2023/11/11 11:19:27;;;;;;;1.17;0.90;;;;;;;25.87;30.12;91785.25;2068157;69;20155;-83
2023/11/11 11:21:55;;;;;;;2.53;1.10;;;;;;;24.83;27.60;91789.69;2068226;69;20145;-81
2023/11/11 11:24:24;;;;;;;2.45;1.50;;;;;;;24.06;28.42;91787.91;2068294;69;20129;-79
2023/11/11 11:26:50;;;;;;;1.25;0.80;;;;;;;25.19;29.17;91788.00;2071516;69;20226;-80
2023/11/11 11:29:19;;;;;;;1.85;0.80;;;;;;;27.20;25.96;91774.88;2071723;69;20128;-81
2023/11/11 11:32:10;;;;;;;0.77;0.57;;;;;;;29.24;23.76;91794.84;2071399;69;20210;-78
2023/11/11 11:34:43;;;;;;;7.60;4.20;;;;;;;26.43;27.34;91793.97;2071425;69;20154;-79
2023/11/11 11:37:12;;;;;;;3.28;2.63;;;;;;;26.17;29.26;91787.09;2071361;69;20148;-80